Klamath Falls, Oregon
Current Conditions -  °F | °C
As of 8:06 AM on Friday 19 Dec 2014 (Local Time) from KLMT Reporting Station
Light Rain Light Rain  
Wind Chill: 36°   Ceiling: 3800
Heat Index: 36°   Visibility: 10mi
Dew Point: 34°   Wind: 3mph
Humidity: 93%   Direction: 60°ENE
Pressure: 30"   Gusts: NA
Location:  42.22°N, 121.78°W
Report Text: KLMT 191606Z 06003KT 10SM -RA SCT022 BKN038 OVC070 02/01 A3000 RMK AO2 P0000 T00220011
Loading
Personal Weather Stations






























Interactive Weather Map New forecast layout! Learn more

10-Day Weather Forecast

Advertisements
Track Severe Weather on mobile